sensor_id;sensor_type;location;lat;lon;timestamp;P1;durP1;ratioP1;P2;durP2;ratioP2
12554;SDS011;6343;50.868;4.700;2023-11-21T00:01:11;34.07;;;19.97;;
12554;SDS011;6343;50.868;4.700;2023-11-21T00:03:37;30.00;;;18.47;;
12554;SDS011;6343;50.868;4.700;2023-11-21T00:06:05;33.30;;;19.00;;
12554;SDS011;6343;50.868;4.700;2023-11-21T00:08:34;31.17;;;18.07;;
12554;SDS011;6343;50.868;4.700;2023-11-21T00:11:00;32.87;;;19.10;;
12554;SDS011;6343;50.868;4.700;2023-11-21T00:13:26;34.07;;;19.80;;
12554;SDS011;6343;50.868;4.700;2023-11-21T00:15:52;31.83;;;19.00;;
12554;SDS011;6343;50.868;4.700;2023-11-21T00:18:19;34.73;;;18.43;;
12554;SDS011;6343;50.868;4.700;2023-11-21T00:20:45;33.90;;;18.00;;
12554;SDS011;6343;50.868;4.700;2023-11-21T00:23:11;33.87;;;18.67;;
12554;SDS011;6343;50.868;4.700;2023-11-21T00:25:39;29.00;;;18.30;;
12554;SDS011;6343;50.868;4.700;2023-11-21T00:28:05;32.57;;;18.03;;
12554;SDS011;6343;50.868;4.700;2023-11-21T00:30:31;26.23;;;17.67;;
12554;SDS011;6343;50.868;4.700;2023-11-21T00:32:58;32.23;;;19.03;;
12554;SDS011;6343;50.868;4.700;2023-11-21T00:35:24;30.50;;;19.30;;
12554;SDS011;6343;50.868;4.700;2023-11-21T00:37:50;30.97;;;18.23;;
12554;SDS011;6343;50.868;4.700;2023-11-21T00:40:17;31.90;;;17.67;;
12554;SDS011;6343;50.868;4.700;2023-11-21T00:42:46;31.43;;;18.17;;
12554;SDS011;6343;50.868;4.700;2023-11-21T00:45:12;35.17;;;19.60;;
12554;SDS011;6343;50.868;4.700;2023-11-21T00:47:39;31.00;;;18.00;;
12554;SDS011;6343;50.868;4.700;2023-11-21T00:50:05;31.37;;;17.53;;
12554;SDS011;6343;50.868;4.700;2023-11-21T00:52:32;29.40;;;18.10;;
12554;SDS011;6343;50.868;4.700;2023-11-21T00:54:58;33.67;;;18.03;;
12554;SDS011;6343;50.868;4.700;2023-11-21T00:57:25;32.27;;;18.40;;
12554;SDS011;6343;50.868;4.700;2023-11-21T00:59:51;29.77;;;17.00;;
12554;SDS011;6343;50.868;4.700;2023-11-21T01:02:18;33.23;;;18.40;;
12554;SDS011;6343;50.868;4.700;2023-11-21T01:04:44;28.77;;;16.57;;
12554;SDS011;6343;50.868;4.700;2023-11-21T01:07:10;29.70;;;16.53;;
12554;SDS011;6343;50.868;4.700;2023-11-21T01:09:36;30.27;;;17.37;;
12554;SDS011;6343;50.868;4.700;2023-11-21T01:12:02;29.27;;;17.57;;
12554;SDS011;6343;50.868;4.700;2023-11-21T01:14:28;33.90;;;17.60;;
12554;SDS011;6343;50.868;4.700;2023-11-21T01:16:55;31.70;;;17.10;;
12554;SDS011;6343;50.868;4.700;2023-11-21T01:19:21;32.63;;;18.33;;
12554;SDS011;6343;50.868;4.700;2023-11-21T01:21:47;27.77;;;17.23;;
12554;SDS011;6343;50.868;4.700;2023-11-21T01:24:15;37.00;;;17.37;;
12554;SDS011;6343;50.868;4.700;2023-11-21T01:26:43;30.90;;;17.37;;
12554;SDS011;6343;50.868;4.700;2023-11-21T01:29:11;28.63;;;17.47;;
12554;SDS011;6343;50.868;4.700;2023-11-21T01:31:37;28.63;;;16.77;;
12554;SDS011;6343;50.868;4.700;2023-11-21T01:34:04;32.40;;;16.80;;
12554;SDS011;6343;50.868;4.700;2023-11-21T01:36:33;29.07;;;16.60;;
12554;SDS011;6343;50.868;4.700;2023-11-21T01:38:59;30.70;;;16.73;;
12554;SDS011;6343;50.868;4.700;2023-11-21T01:41:28;31.83;;;17.47;;
12554;SDS011;6343;50.868;4.700;2023-11-21T01:43:55;33.63;;;17.97;;
12554;SDS011;6343;50.868;4.700;2023-11-21T01:46:22;31.97;;;17.10;;
12554;SDS011;6343;50.868;4.700;2023-11-21T01:48:49;29.00;;;16.83;;
12554;SDS011;6343;50.868;4.700;2023-11-21T01:51:16;29.17;;;17.10;;
12554;SDS011;6343;50.868;4.700;2023-11-21T01:53:43;29.83;;;16.27;;
12554;SDS011;6343;50.868;4.700;2023-11-21T01:56:11;30.70;;;16.00;;
12554;SDS011;6343;50.868;4.700;2023-11-21T01:58:38;30.73;;;17.13;;
12554;SDS011;6343;50.868;4.700;2023-11-21T02:01:05;27.57;;;15.47;;
12554;SDS011;6343;50.868;4.700;2023-11-21T02:03:31;25.77;;;15.73;;
12554;SDS011;6343;50.868;4.700;2023-11-21T02:05:57;31.80;;;16.13;;
12554;SDS011;6343;50.868;4.700;2023-11-21T02:08:23;31.27;;;17.03;;
12554;SDS011;6343;50.868;4.700;2023-11-21T02:10:49;27.47;;;16.10;;
12554;SDS011;6343;50.868;4.700;2023-11-21T02:13:15;27.63;;;16.37;;
12554;SDS011;6343;50.868;4.700;2023-11-21T02:15:41;25.03;;;15.00;;
12554;SDS011;6343;50.868;4.700;2023-11-21T02:18:08;36.27;;;17.63;;
12554;SDS011;6343;50.868;4.700;2023-11-21T02:20:36;27.73;;;15.43;;
12554;SDS011;6343;50.868;4.700;2023-11-21T02:23:04;30.47;;;16.33;;
12554;SDS011;6343;50.868;4.700;2023-11-21T02:25:30;29.97;;;15.60;;
12554;SDS011;6343;50.868;4.700;2023-11-21T02:27:58;31.07;;;16.57;;
12554;SDS011;6343;50.868;4.700;2023-11-21T02:30:24;28.73;;;15.97;;
12554;SDS011;6343;50.868;4.700;2023-11-21T02:32:50;24.53;;;15.30;;
12554;SDS011;6343;50.868;4.700;2023-11-21T02:35:20;28.23;;;14.57;;
12554;SDS011;6343;50.868;4.700;2023-11-21T02:37:47;30.30;;;16.60;;
12554;SDS011;6343;50.868;4.700;2023-11-21T02:40:13;30.93;;;16.10;;
12554;SDS011;6343;50.868;4.700;2023-11-21T02:42:52;29.10;;;16.13;;
12554;SDS011;6343;50.868;4.700;2023-11-21T02:45:18;29.03;;;15.70;;
12554;SDS011;6343;50.868;4.700;2023-11-21T02:47:46;25.30;;;14.97;;
12554;SDS011;6343;50.868;4.700;2023-11-21T02:50:12;27.80;;;15.53;;
12554;SDS011;6343;50.868;4.700;2023-11-21T02:52:38;26.70;;;14.63;;
12554;SDS011;6343;50.868;4.700;2023-11-21T02:55:05;31.00;;;14.97;;
12554;SDS011;6343;50.868;4.700;2023-11-21T02:57:35;32.63;;;16.13;;
12554;SDS011;6343;50.868;4.700;2023-11-21T03:00:02;28.00;;;15.07;;
12554;SDS011;6343;50.868;4.700;2023-11-21T03:02:29;32.30;;;15.63;;
12554;SDS011;6343;50.868;4.700;2023-11-21T03:04:55;27.83;;;14.93;;
12554;SDS011;6343;50.868;4.700;2023-11-21T03:07:21;28.90;;;16.07;;
12554;SDS011;6343;50.868;4.700;2023-11-21T03:09:48;27.47;;;15.20;;
12554;SDS011;6343;50.868;4.700;2023-11-21T03:12:14;27.67;;;15.57;;
12554;SDS011;6343;50.868;4.700;2023-11-21T03:14:41;28.83;;;15.23;;
12554;SDS011;6343;50.868;4.700;2023-11-21T03:17:07;30.93;;;15.43;;
12554;SDS011;6343;50.868;4.700;2023-11-21T03:19:33;30.43;;;15.50;;
12554;SDS011;6343;50.868;4.700;2023-11-21T03:21:59;27.97;;;15.17;;
12554;SDS011;6343;50.868;4.700;2023-11-21T03:24:25;25.30;;;14.50;;
12554;SDS011;6343;50.868;4.700;2023-11-21T03:26:51;24.50;;;14.47;;
12554;SDS011;6343;50.868;4.700;2023-11-21T03:29:18;29.00;;;14.47;;
12554;SDS011;6343;50.868;4.700;2023-11-21T03:31:45;29.13;;;15.23;;
12554;SDS011;6343;50.868;4.700;2023-11-21T03:34:14;28.60;;;15.03;;
12554;SDS011;6343;50.868;4.700;2023-11-21T03:36:40;30.20;;;15.23;;
12554;SDS011;6343;50.868;4.700;2023-11-21T03:39:07;26.77;;;15.33;;
12554;SDS011;6343;50.868;4.700;2023-11-21T03:41:33;25.70;;;15.03;;
12554;SDS011;6343;50.868;4.700;2023-11-21T03:43:59;27.33;;;14.60;;
12554;SDS011;6343;50.868;4.700;2023-11-21T03:46:25;27.37;;;14.93;;
12554;SDS011;6343;50.868;4.700;2023-11-21T03:48:51;30.63;;;15.23;;
12554;SDS011;6343;50.868;4.700;2023-11-21T03:51:17;27.40;;;14.83;;
12554;SDS011;6343;50.868;4.700;2023-11-21T03:53:43;27.00;;;14.53;;
12554;SDS011;6343;50.868;4.700;2023-11-21T03:56:09;25.63;;;13.67;;
12554;SDS011;6343;50.868;4.700;2023-11-21T03:58:36;27.30;;;13.87;;
12554;SDS011;6343;50.868;4.700;2023-11-21T04:01:02;27.30;;;13.57;;
12554;SDS011;6343;50.868;4.700;2023-11-21T04:03:28;23.03;;;12.73;;
12554;SDS011;6343;50.868;4.700;2023-11-21T04:05:55;26.47;;;14.83;;
12554;SDS011;6343;50.868;4.700;2023-11-21T04:08:22;29.47;;;14.03;;
12554;SDS011;6343;50.868;4.700;2023-11-21T04:10:48;27.10;;;14.93;;
12554;SDS011;6343;50.868;4.700;2023-11-21T04:13:14;30.23;;;15.00;;
12554;SDS011;6343;50.868;4.700;2023-11-21T04:15:40;28.37;;;14.50;;
12554;SDS011;6343;50.868;4.700;2023-11-21T04:18:06;26.23;;;14.37;;
12554;SDS011;6343;50.868;4.700;2023-11-21T04:20:32;25.27;;;14.13;;
12554;SDS011;6343;50.868;4.700;2023-11-21T04:22:58;30.17;;;14.57;;
12554;SDS011;6343;50.868;4.700;2023-11-21T04:25:25;23.00;;;13.50;;
12554;SDS011;6343;50.868;4.700;2023-11-21T04:27:51;24.40;;;14.17;;
12554;SDS011;6343;50.868;4.700;2023-11-21T04:30:17;22.73;;;12.60;;
12554;SDS011;6343;50.868;4.700;2023-11-21T04:32:43;24.20;;;13.93;;
12554;SDS011;6343;50.868;4.700;2023-11-21T04:35:09;28.03;;;13.50;;
12554;SDS011;6343;50.868;4.700;2023-11-21T04:37:35;20.50;;;12.20;;
12554;SDS011;6343;50.868;4.700;2023-11-21T04:40:01;25.63;;;13.30;;
12554;SDS011;6343;50.868;4.700;2023-11-21T04:42:32;25.13;;;13.67;;
12554;SDS011;6343;50.868;4.700;2023-11-21T04:44:58;30.60;;;15.23;;
12554;SDS011;6343;50.868;4.700;2023-11-21T04:47:24;23.50;;;12.47;;
12554;SDS011;6343;50.868;4.700;2023-11-21T04:49:50;23.47;;;12.77;;
12554;SDS011;6343;50.868;4.700;2023-11-21T04:52:17;26.67;;;13.53;;
12554;SDS011;6343;50.868;4.700;2023-11-21T04:54:45;25.80;;;13.53;;
12554;SDS011;6343;50.868;4.700;2023-11-21T04:57:11;25.97;;;14.33;;
12554;SDS011;6343;50.868;4.700;2023-11-21T04:59:37;25.17;;;13.27;;
12554;SDS011;6343;50.868;4.700;2023-11-21T05:02:03;25.33;;;14.00;;
12554;SDS011;6343;50.868;4.700;2023-11-21T05:04:30;24.63;;;13.17;;
12554;SDS011;6343;50.868;4.700;2023-11-21T05:06:56;25.93;;;12.67;;
12554;SDS011;6343;50.868;4.700;2023-11-21T05:09:22;20.00;;;11.57;;
12554;SDS011;6343;50.868;4.700;2023-11-21T05:11:48;22.73;;;12.33;;
12554;SDS011;6343;50.868;4.700;2023-11-21T05:14:16;19.53;;;12.17;;
12554;SDS011;6343;50.868;4.700;2023-11-21T05:16:43;20.60;;;11.97;;
12554;SDS011;6343;50.868;4.700;2023-11-21T05:19:09;21.60;;;12.90;;
12554;SDS011;6343;50.868;4.700;2023-11-21T05:21:37;24.63;;;12.67;;
12554;SDS011;6343;50.868;4.700;2023-11-21T05:24:05;29.40;;;12.53;;
12554;SDS011;6343;50.868;4.700;2023-11-21T05:26:33;23.90;;;12.40;;
12554;SDS011;6343;50.868;4.700;2023-11-21T05:28:59;20.80;;;11.47;;
12554;SDS011;6343;50.868;4.700;2023-11-21T05:31:25;24.77;;;12.43;;
12554;SDS011;6343;50.868;4.700;2023-11-21T05:33:52;23.50;;;12.07;;
12554;SDS011;6343;50.868;4.700;2023-11-21T05:36:18;23.77;;;12.53;;
12554;SDS011;6343;50.868;4.700;2023-11-21T05:38:44;25.60;;;12.40;;
12554;SDS011;6343;50.868;4.700;2023-11-21T05:41:11;27.23;;;12.83;;
12554;SDS011;6343;50.868;4.700;2023-11-21T05:43:39;26.47;;;11.30;;
12554;SDS011;6343;50.868;4.700;2023-11-21T05:46:05;21.97;;;12.23;;
12554;SDS011;6343;50.868;4.700;2023-11-21T05:48:35;24.23;;;11.67;;
12554;SDS011;6343;50.868;4.700;2023-11-21T05:51:04;22.10;;;12.67;;
12554;SDS011;6343;50.868;4.700;2023-11-21T05:53:31;24.17;;;11.43;;
12554;SDS011;6343;50.868;4.700;2023-11-21T05:55:57;23.53;;;12.83;;
12554;SDS011;6343;50.868;4.700;2023-11-21T05:58:23;26.17;;;12.47;;
12554;SDS011;6343;50.868;4.700;2023-11-21T06:00:49;24.67;;;13.23;;
12554;SDS011;6343;50.868;4.700;2023-11-21T06:03:15;21.87;;;11.50;;
12554;SDS011;6343;50.868;4.700;2023-11-21T06:05:42;22.70;;;11.27;;
12554;SDS011;6343;50.868;4.700;2023-11-21T06:08:08;21.37;;;12.17;;
12554;SDS011;6343;50.868;4.700;2023-11-21T06:10:35;24.23;;;11.77;;
12554;SDS011;6343;50.868;4.700;2023-11-21T06:13:02;24.10;;;11.63;;
12554;SDS011;6343;50.868;4.700;2023-11-21T06:15:35;21.40;;;12.03;;
12554;SDS011;6343;50.868;4.700;2023-11-21T06:18:01;22.93;;;12.47;;
12554;SDS011;6343;50.868;4.700;2023-11-21T06:20:30;19.67;;;12.60;;
12554;SDS011;6343;50.868;4.700;2023-11-21T06:22:57;26.43;;;13.23;;
12554;SDS011;6343;50.868;4.700;2023-11-21T06:25:23;21.70;;;12.63;;
12554;SDS011;6343;50.868;4.700;2023-11-21T06:27:50;23.47;;;11.67;;
12554;SDS011;6343;50.868;4.700;2023-11-21T06:30:17;25.13;;;11.70;;
12554;SDS011;6343;50.868;4.700;2023-11-21T06:32:45;22.30;;;12.23;;
12554;SDS011;6343;50.868;4.700;2023-11-21T06:35:11;22.73;;;11.60;;
12554;SDS011;6343;50.868;4.700;2023-11-21T06:37:38;22.50;;;11.60;;
12554;SDS011;6343;50.868;4.700;2023-11-21T06:40:04;20.90;;;11.60;;
12554;SDS011;6343;50.868;4.700;2023-11-21T06:42:32;20.17;;;11.23;;
12554;SDS011;6343;50.868;4.700;2023-11-21T06:45:03;21.27;;;12.13;;
12554;SDS011;6343;50.868;4.700;2023-11-21T06:47:29;19.60;;;11.30;;
12554;SDS011;6343;50.868;4.700;2023-11-21T06:49:59;19.47;;;12.27;;
12554;SDS011;6343;50.868;4.700;2023-11-21T06:52:25;21.50;;;11.63;;
12554;SDS011;6343;50.868;4.700;2023-11-21T06:54:51;22.20;;;11.73;;
12554;SDS011;6343;50.868;4.700;2023-11-21T06:57:18;21.80;;;11.20;;
12554;SDS011;6343;50.868;4.700;2023-11-21T06:59:44;20.63;;;11.17;;
12554;SDS011;6343;50.868;4.700;2023-11-21T07:02:10;21.83;;;11.07;;
12554;SDS011;6343;50.868;4.700;2023-11-21T07:04:38;23.07;;;11.83;;
12554;SDS011;6343;50.868;4.700;2023-11-21T07:07:04;28.73;;;12.53;;
12554;SDS011;6343;50.868;4.700;2023-11-21T07:09:32;26.00;;;12.87;;
12554;SDS011;6343;50.868;4.700;2023-11-21T07:11:58;21.37;;;12.17;;
12554;SDS011;6343;50.868;4.700;2023-11-21T07:14:24;23.57;;;12.50;;
12554;SDS011;6343;50.868;4.700;2023-11-21T07:16:52;24.30;;;11.23;;
12554;SDS011;6343;50.868;4.700;2023-11-21T07:19:18;26.23;;;11.97;;
12554;SDS011;6343;50.868;4.700;2023-11-21T07:21:46;24.63;;;11.97;;
12554;SDS011;6343;50.868;4.700;2023-11-21T07:24:22;22.57;;;12.40;;
12554;SDS011;6343;50.868;4.700;2023-11-21T07:26:49;20.93;;;10.77;;
12554;SDS011;6343;50.868;4.700;2023-11-21T07:29:15;25.57;;;13.23;;
12554;SDS011;6343;50.868;4.700;2023-11-21T07:31:41;22.00;;;12.37;;
12554;SDS011;6343;50.868;4.700;2023-11-21T07:34:08;23.37;;;12.30;;
12554;SDS011;6343;50.868;4.700;2023-11-21T07:36:34;19.27;;;12.80;;
12554;SDS011;6343;50.868;4.700;2023-11-21T07:39:00;26.93;;;13.87;;
12554;SDS011;6343;50.868;4.700;2023-11-21T07:41:27;37.03;;;21.57;;
12554;SDS011;6343;50.868;4.700;2023-11-21T07:43:55;26.00;;;14.67;;
12554;SDS011;6343;50.868;4.700;2023-11-21T07:46:21;24.83;;;12.97;;
12554;SDS011;6343;50.868;4.700;2023-11-21T07:48:48;21.77;;;13.03;;
12554;SDS011;6343;50.868;4.700;2023-11-21T07:51:15;26.00;;;13.87;;
12554;SDS011;6343;50.868;4.700;2023-11-21T07:53:41;24.10;;;14.23;;
12554;SDS011;6343;50.868;4.700;2023-11-21T07:56:07;27.53;;;13.83;;
12554;SDS011;6343;50.868;4.700;2023-11-21T07:58:34;20.53;;;12.43;;
12554;SDS011;6343;50.868;4.700;2023-11-21T08:01:01;25.63;;;12.77;;
12554;SDS011;6343;50.868;4.700;2023-11-21T08:03:27;28.20;;;14.83;;
12554;SDS011;6343;50.868;4.700;2023-11-21T08:05:55;21.83;;;12.83;;
12554;SDS011;6343;50.868;4.700;2023-11-21T08:08:21;24.20;;;12.77;;
12554;SDS011;6343;50.868;4.700;2023-11-21T08:10:48;23.90;;;11.27;;
12554;SDS011;6343;50.868;4.700;2023-11-21T08:13:24;23.83;;;13.30;;
12554;SDS011;6343;50.868;4.700;2023-11-21T08:15:53;22.57;;;13.63;;
12554;SDS011;6343;50.868;4.700;2023-11-21T08:18:19;22.37;;;12.30;;
12554;SDS011;6343;50.868;4.700;2023-11-21T08:20:46;24.30;;;12.93;;
12554;SDS011;6343;50.868;4.700;2023-11-21T08:23:15;22.13;;;11.97;;
12554;SDS011;6343;50.868;4.700;2023-11-21T08:25:44;24.43;;;13.43;;
12554;SDS011;6343;50.868;4.700;2023-11-21T08:28:10;22.90;;;13.87;;
12554;SDS011;6343;50.868;4.700;2023-11-21T08:30:36;23.10;;;13.10;;
12554;SDS011;6343;50.868;4.700;2023-11-21T08:33:03;25.07;;;13.70;;
12554;SDS011;6343;50.868;4.700;2023-11-21T08:35:29;23.17;;;13.90;;
12554;SDS011;6343;50.868;4.700;2023-11-21T08:37:55;26.23;;;14.30;;
12554;SDS011;6343;50.868;4.700;2023-11-21T08:40:22;23.10;;;14.70;;
12554;SDS011;6343;50.868;4.700;2023-11-21T08:42:48;20.87;;;12.63;;
12554;SDS011;6343;50.868;4.700;2023-11-21T08:45:17;26.97;;;13.97;;
12554;SDS011;6343;50.868;4.700;2023-11-21T08:47:43;24.23;;;13.33;;
12554;SDS011;6343;50.868;4.700;2023-11-21T08:50:09;26.93;;;13.93;;
12554;SDS011;6343;50.868;4.700;2023-11-21T08:52:37;28.43;;;14.47;;
12554;SDS011;6343;50.868;4.700;2023-11-21T08:55:07;21.20;;;13.07;;
12554;SDS011;6343;50.868;4.700;2023-11-21T08:57:36;23.40;;;14.33;;
12554;SDS011;6343;50.868;4.700;2023-11-21T09:00:03;27.63;;;14.00;;
12554;SDS011;6343;50.868;4.700;2023-11-21T09:02:33;26.23;;;14.13;;
12554;SDS011;6343;50.868;4.700;2023-11-21T09:04:59;30.20;;;14.00;;
12554;SDS011;6343;50.868;4.700;2023-11-21T09:07:28;20.73;;;13.00;;
12554;SDS011;6343;50.868;4.700;2023-11-21T09:09:54;27.90;;;14.27;;
12554;SDS011;6343;50.868;4.700;2023-11-21T09:12:20;26.03;;;14.53;;
12554;SDS011;6343;50.868;4.700;2023-11-21T09:14:47;28.77;;;13.97;;
12554;SDS011;6343;50.868;4.700;2023-11-21T09:17:15;25.77;;;13.87;;
12554;SDS011;6343;50.868;4.700;2023-11-21T09:19:41;26.33;;;12.97;;
12554;SDS011;6343;50.868;4.700;2023-11-21T09:22:10;33.17;;;16.10;;
12554;SDS011;6343;50.868;4.700;2023-11-21T09:24:36;37.70;;;15.33;;
12554;SDS011;6343;50.868;4.700;2023-11-21T09:27:02;22.37;;;13.47;;
12554;SDS011;6343;50.868;4.700;2023-11-21T09:29:30;32.23;;;14.10;;
12554;SDS011;6343;50.868;4.700;2023-11-21T09:31:57;29.00;;;15.43;;
12554;SDS011;6343;50.868;4.700;2023-11-21T09:34:26;26.03;;;14.90;;
12554;SDS011;6343;50.868;4.700;2023-11-21T09:36:52;28.03;;;14.53;;
12554;SDS011;6343;50.868;4.700;2023-11-21T09:39:19;24.63;;;13.43;;
12554;SDS011;6343;50.868;4.700;2023-11-21T09:41:52;33.13;;;15.67;;
12554;SDS011;6343;50.868;4.700;2023-11-21T09:44:35;33.97;;;16.60;;
12554;SDS011;6343;50.868;4.700;2023-11-21T09:47:02;31.10;;;15.23;;
12554;SDS011;6343;50.868;4.700;2023-11-21T09:49:28;32.37;;;17.00;;
12554;SDS011;6343;50.868;4.700;2023-11-21T09:51:59;26.90;;;15.20;;
12554;SDS011;6343;50.868;4.700;2023-11-21T09:54:28;27.63;;;15.13;;
12554;SDS011;6343;50.868;4.700;2023-11-21T09:56:56;25.97;;;14.50;;
12554;SDS011;6343;50.868;4.700;2023-11-21T09:59:24;26.27;;;15.17;;
12554;SDS011;6343;50.868;4.700;2023-11-21T10:01:54;20.63;;;12.43;;
12554;SDS011;6343;50.868;4.700;2023-11-21T10:04:20;21.10;;;13.23;;
12554;SDS011;6343;50.868;4.700;2023-11-21T10:06:46;24.50;;;13.13;;
12554;SDS011;6343;50.868;4.700;2023-11-21T10:09:14;20.20;;;12.40;;
12554;SDS011;6343;50.868;4.700;2023-11-21T10:11:41;23.23;;;12.83;;
12554;SDS011;6343;50.868;4.700;2023-11-21T10:14:12;22.73;;;13.33;;
12554;SDS011;6343;50.868;4.700;2023-11-21T10:16:39;21.90;;;13.17;;
12554;SDS011;6343;50.868;4.700;2023-11-21T10:20:52;22.53;;;12.80;;
12554;SDS011;6343;50.868;4.700;2023-11-21T10:23:20;20.70;;;11.23;;
12554;SDS011;6343;50.868;4.700;2023-11-21T10:25:47;29.60;;;11.80;;
12554;SDS011;6343;50.868;4.700;2023-11-21T10:28:14;23.30;;;12.23;;
12554;SDS011;6343;50.868;4.700;2023-11-21T10:30:40;27.57;;;13.83;;
12554;SDS011;6343;50.868;4.700;2023-11-21T10:33:07;31.80;;;15.27;;
12554;SDS011;6343;50.868;4.700;2023-11-21T10:38:05;50.10;;;19.10;;
12554;SDS011;6343;50.868;4.700;2023-11-21T10:40:37;34.30;;;17.23;;
12554;SDS011;6343;50.868;4.700;2023-11-21T10:43:08;38.23;;;17.70;;
12554;SDS011;6343;50.868;4.700;2023-11-21T10:45:34;34.63;;;16.20;;
12554;SDS011;6343;50.868;4.700;2023-11-21T10:48:04;35.43;;;17.47;;
12554;SDS011;6343;50.868;4.700;2023-11-21T10:50:32;35.77;;;16.73;;
12554;SDS011;6343;50.868;4.700;2023-11-21T10:53:00;36.57;;;16.80;;
12554;SDS011;6343;50.868;4.700;2023-11-21T10:55:27;31.07;;;16.37;;
12554;SDS011;6343;50.868;4.700;2023-11-21T10:57:53;36.60;;;17.60;;
12554;SDS011;6343;50.868;4.700;2023-11-21T11:00:20;35.20;;;16.50;;
12554;SDS011;6343;50.868;4.700;2023-11-21T11:02:47;32.53;;;16.63;;
12554;SDS011;6343;50.868;4.700;2023-11-21T11:05:14;34.67;;;16.77;;
12554;SDS011;6343;50.868;4.700;2023-11-21T11:07:41;31.17;;;16.23;;
12554;SDS011;6343;50.868;4.700;2023-11-21T11:10:08;30.33;;;15.30;;
12554;SDS011;6343;50.868;4.700;2023-11-21T11:12:39;34.07;;;15.73;;
12554;SDS011;6343;50.868;4.700;2023-11-21T11:15:05;24.60;;;14.03;;
12554;SDS011;6343;50.868;4.700;2023-11-21T11:17:34;30.60;;;15.23;;
12554;SDS011;6343;50.868;4.700;2023-11-21T11:20:01;29.30;;;15.80;;
12554;SDS011;6343;50.868;4.700;2023-11-21T11:25:30;29.40;;;15.07;;
12554;SDS011;6343;50.868;4.700;2023-11-21T11:30:39;31.23;;;15.27;;
12554;SDS011;6343;50.868;4.700;2023-11-21T11:38:23;27.33;;;14.77;;
12554;SDS011;6343;50.868;4.700;2023-11-21T11:40:52;31.30;;;16.33;;
12554;SDS011;6343;50.868;4.700;2023-11-21T11:43:26;31.37;;;16.03;;
12554;SDS011;6343;50.868;4.700;2023-11-21T11:45:55;28.77;;;15.10;;
12554;SDS011;6343;50.868;4.700;2023-11-21T11:48:22;31.20;;;14.17;;
12554;SDS011;6343;50.868;4.700;2023-11-21T11:51:01;23.00;;;12.47;;
12554;SDS011;6343;50.868;4.700;2023-11-21T11:53:28;26.67;;;13.23;;
12554;SDS011;6343;50.868;4.700;2023-11-21T11:58:43;24.73;;;12.27;;
12554;SDS011;6343;50.868;4.700;2023-11-21T12:01:11;22.67;;;11.33;;
12554;SDS011;6343;50.868;4.700;2023-11-21T12:03:37;23.43;;;11.37;;
12554;SDS011;6343;50.868;4.700;2023-11-21T12:06:04;18.33;;;11.03;;
12554;SDS011;6343;50.868;4.700;2023-11-21T12:08:32;20.57;;;10.70;;
12554;SDS011;6343;50.868;4.700;2023-11-21T12:10:58;18.30;;;10.83;;
12554;SDS011;6343;50.868;4.700;2023-11-21T12:13:24;23.40;;;11.23;;
12554;SDS011;6343;50.868;4.700;2023-11-21T12:15:50;16.90;;;9.77;;
12554;SDS011;6343;50.868;4.700;2023-11-21T12:18:17;20.83;;;11.83;;
12554;SDS011;6343;50.868;4.700;2023-11-21T12:20:43;18.20;;;9.67;;
12554;SDS011;6343;50.868;4.700;2023-11-21T12:23:12;13.53;;;8.97;;
12554;SDS011;6343;50.868;4.700;2023-11-21T12:25:40;12.37;;;8.57;;
12554;SDS011;6343;50.868;4.700;2023-11-21T12:28:07;16.07;;;9.10;;
12554;SDS011;6343;50.868;4.700;2023-11-21T12:30:33;14.50;;;8.60;;
12554;SDS011;6343;50.868;4.700;2023-11-21T12:33:01;14.00;;;8.03;;
12554;SDS011;6343;50.868;4.700;2023-11-21T12:35:28;15.67;;;8.23;;
12554;SDS011;6343;50.868;4.700;2023-11-21T12:37:55;12.90;;;7.07;;
12554;SDS011;6343;50.868;4.700;2023-11-21T12:40:24;14.67;;;7.10;;
12554;SDS011;6343;50.868;4.700;2023-11-21T12:42:52;13.87;;;7.33;;
12554;SDS011;6343;50.868;4.700;2023-11-21T12:45:19;13.10;;;8.30;;
12554;SDS011;6343;50.868;4.700;2023-11-21T12:47:46;8.57;;;5.93;;
12554;SDS011;6343;50.868;4.700;2023-11-21T12:50:19;9.77;;;6.63;;
12554;SDS011;6343;50.868;4.700;2023-11-21T12:52:48;11.63;;;6.57;;
12554;SDS011;6343;50.868;4.700;2023-11-21T12:55:15;9.40;;;6.20;;
12554;SDS011;6343;50.868;4.700;2023-11-21T12:57:42;38.40;;;15.63;;
12554;SDS011;6343;50.868;4.700;2023-11-21T13:00:08;9.63;;;5.90;;
12554;SDS011;6343;50.868;4.700;2023-11-21T13:02:50;11.00;;;6.27;;
12554;SDS011;6343;50.868;4.700;2023-11-21T13:05:35;6.40;;;4.60;;
12554;SDS011;6343;50.868;4.700;2023-11-21T13:08:07;8.87;;;4.53;;
12554;SDS011;6343;50.868;4.700;2023-11-21T13:10:35;6.77;;;4.23;;
12554;SDS011;6343;50.868;4.700;2023-11-21T13:13:08;10.77;;;3.70;;
12554;SDS011;6343;50.868;4.700;2023-11-21T13:15:34;6.47;;;4.23;;
12554;SDS011;6343;50.868;4.700;2023-11-21T13:18:01;6.73;;;4.20;;
12554;SDS011;6343;50.868;4.700;2023-11-21T13:20:28;6.37;;;4.17;;
12554;SDS011;6343;50.868;4.700;2023-11-21T13:22:55;9.23;;;4.47;;
12554;SDS011;6343;50.868;4.700;2023-11-21T13:25:29;8.07;;;4.70;;
12554;SDS011;6343;50.868;4.700;2023-11-21T13:27:59;6.23;;;4.20;;
12554;SDS011;6343;50.868;4.700;2023-11-21T13:30:28;8.83;;;5.10;;
12554;SDS011;6343;50.868;4.700;2023-11-21T13:33:08;7.77;;;4.20;;
12554;SDS011;6343;50.868;4.700;2023-11-21T13:35:35;7.10;;;4.17;;
12554;SDS011;6343;50.868;4.700;2023-11-21T13:38:12;7.90;;;4.80;;
12554;SDS011;6343;50.868;4.700;2023-11-21T13:40:39;8.67;;;4.80;;
12554;SDS011;6343;50.868;4.700;2023-11-21T13:43:09;10.13;;;4.47;;
12554;SDS011;6343;50.868;4.700;2023-11-21T13:45:39;6.40;;;4.60;;
12554;SDS011;6343;50.868;4.700;2023-11-21T13:48:07;8.23;;;4.53;;
12554;SDS011;6343;50.868;4.700;2023-11-21T13:50:37;7.80;;;4.37;;
12554;SDS011;6343;50.868;4.700;2023-11-21T13:53:04;7.97;;;4.37;;
12554;SDS011;6343;50.868;4.700;2023-11-21T13:55:45;7.23;;;4.70;;
12554;SDS011;6343;50.868;4.700;2023-11-21T13:58:12;6.30;;;4.73;;
12554;SDS011;6343;50.868;4.700;2023-11-21T14:00:44;6.23;;;4.80;;
12554;SDS011;6343;50.868;4.700;2023-11-21T14:03:14;8.67;;;5.03;;
12554;SDS011;6343;50.868;4.700;2023-11-21T14:05:50;9.37;;;4.97;;
12554;SDS011;6343;50.868;4.700;2023-11-21T14:08:21;7.53;;;4.80;;
12554;SDS011;6343;50.868;4.700;2023-11-21T14:10:53;7.43;;;4.57;;
12554;SDS011;6343;50.868;4.700;2023-11-21T14:13:24;8.00;;;4.90;;
12554;SDS011;6343;50.868;4.700;2023-11-21T14:15:51;6.80;;;5.17;;
12554;SDS011;6343;50.868;4.700;2023-11-21T14:18:25;10.80;;;5.47;;
12554;SDS011;6343;50.868;4.700;2023-11-21T14:21:08;6.83;;;4.53;;
12554;SDS011;6343;50.868;4.700;2023-11-21T14:23:35;8.27;;;5.20;;
12554;SDS011;6343;50.868;4.700;2023-11-21T14:26:03;5.93;;;4.40;;
12554;SDS011;6343;50.868;4.700;2023-11-21T14:28:31;9.30;;;5.33;;
12554;SDS011;6343;50.868;4.700;2023-11-21T14:30:59;8.53;;;5.03;;
12554;SDS011;6343;50.868;4.700;2023-11-21T14:33:25;9.93;;;5.83;;
12554;SDS011;6343;50.868;4.700;2023-11-21T14:35:52;7.97;;;5.93;;
12554;SDS011;6343;50.868;4.700;2023-11-21T14:38:18;5.83;;;4.40;;
12554;SDS011;6343;50.868;4.700;2023-11-21T14:40:44;6.63;;;4.20;;
12554;SDS011;6343;50.868;4.700;2023-11-21T14:43:12;5.40;;;4.30;;
12554;SDS011;6343;50.868;4.700;2023-11-21T14:45:38;11.80;;;4.17;;
12554;SDS011;6343;50.868;4.700;2023-11-21T14:48:04;7.60;;;4.53;;
12554;SDS011;6343;50.868;4.700;2023-11-21T14:50:34;5.63;;;4.37;;
12554;SDS011;6343;50.868;4.700;2023-11-21T14:53:03;5.77;;;4.60;;
12554;SDS011;6343;50.868;4.700;2023-11-21T14:55:34;10.03;;;5.03;;
12554;SDS011;6343;50.868;4.700;2023-11-21T14:58:06;7.23;;;4.90;;